Terminal Aerodrome Forecast
Issued by NWS

Home | Current Version | Previous Version | Text Only | Print | Product List | Glossary Off
Versions: 1 2 3 4 5 6 7 8 9 10 11 12 13 14 15 16

000
FTUS43 KGRB 211933 AAA
TAFMTW
TAF AMD
KMTW 211933Z 2120/2218 06005KT 2SM BR SCT015 BKN120
      TEMPO 2120/2123 3/4SM BR BKN009
     FM220000 05005KT 1SM BR OVC004
     FM220600 04011G19KT 2SM -RA BR OVC006
     FM221100 04014G24KT 1SM -RASN BR OVC004
     FM221500 04018G28KT 3SM -RA BR OVC006=

USA.gov is the U.S. government's official web portal to all federal, state and local government web resources and services.